Meath Environmental Platform

Observations

Time Sensor AQI SAQ Temp °C Hum % Pres Pa CO μg/m³ H₂S μg/m³ NO μg/m³ NO₂ μg/m³ O₃ μg/m³ SO₂ μg/m³ CO₂e PPM VOC PPM PM1 μg/m³ PM2.5 μg/m³ PM4 μg/m³ PM10 μg/m³ TPS µm
Tuesday 11 August 2026
11:52 Trim Patrick St 1 34 27 69,442 0 0 0.45 7.76 83.1 17.75 2 7.85 8.64
11:52 Trim Market St 2 40.8 19 67,088 0 0 0 14.14 112.73 4.11 0 3.24 3.56
11:51 Trim Patrick St 1 33.9 28 69,440 0 0 0.45 12.79 92.94 17.15 2 7.78 8.56
11:50 Trim Patrick St 1 33.9 27 69,410 0 0 0.46 12.12 103.23 17.72 2 7.84 8.62
11:50 Trim Market St 2 40.9 19 67,096 0 0 0 13.18 95.93 3.95 0.71 3.78 4.16
11:49 Trim Patrick St 1 33.9 26 69,399 0 0 0.5 12.95 91.73 16.63 2 8.71 9.58
11:49 Trim Market St 2 40.8 19 67,132 0 0 0 13.12 104.56 4.14 0 3.76 4.14
11:48 Trim Patrick St 1 33.9 27 69,385 0 0 0.46 12.13 124.8 17.4 2 8.7 9.57
11:48 Trim Market St 2 40.8 19 67,118 0 0 0 14.1 101.32 3.8 0 3.21 3.53
11:47 Trim Market St 2 40.8 19 67,098 0 0 0 14.04 95.53 3.86 0 3.21 3.53
11:46 Trim Patrick St 1 33.9 29 69,410 0 0 0.44 10.58 114.26 16.68 2 7.75 8.53
11:45 Trim Patrick St 1 33.9 30 69,402 0 0 0.43 8.04 86.06 18.64 2 8.51 9.36
11:44 Trim Patrick St 1 33.9 27 69,391 0 0 0.44 3.28 71.82 18.29 2 7.88 8.66
11:43 Trim Patrick St 1 33.9 29 69,406 0 0 0.43 11.1 123.08 18.44 2 7.74 8.51
11:42 Trim Patrick St 1 34 29 69,399 0 0 0.42 6.91 101.3 18.45 2 7.73 8.5
11:41 Trim Patrick St 1 34 27 69,426 0 0 0.42 4.6 49.44 16.3 2 7.84 8.62
11:40 Trim Market St 2 40.2 20 67,019 0 0 0 14.31 97.57 1.87 0.71 4.27 4.7
11:40 Trim Patrick St 1 34 26 69,426 0 0 0.44 4.87 49.93 17.06 2 8.73 9.6
11:39 Trim Patrick St 1 33.9 27 69,424 0 0 0.44 8.24 83.51 17.15 2 7.86 8.64
11:38 Trim Patrick St 1 33.9 31 69,416 0 0 0.43 12 93.37 15.92 2 7.64 8.4